AFR2M LFLL-EGLL
Flight info
| Callsign | AFR2M |
|---|---|
| Flight time | N/A |
| Altitude | 30000 |
| Route | BUSIL DCT AMORO DCT MOMIL DCT BAGBI DCT SIZZA/N0455F400 DCT LAULY DCT BRY DCT CLM DCT KOPOR DCT ABNUR DCT DIMAL DCT ALESO |
| Aircraft | A343/H-SDE2E3FGHIJ4J5M1RWXY/LB1D1 |
Departure
| Time | 2026-04-28 17:54 |
|---|---|
| Airport | Lyon Saint-Exupéry Airport (LFLL) |
Arrival
| Time | N/A |
|---|---|
| Airport | London Heathrow Airport (EGLL) |
| Time | Latitude | Longitude | Altitude | Speed | Heading |
|---|---|---|---|---|---|
| 2026-04-28 17:39 | 45.72181 | 5.08226 | 801 ft | 0 kts | 290° |
| 2026-04-28 17:44 | 45.72175 | 5.08249 | 801 ft | 3 kts | 290° |
| 2026-04-28 17:44 | 45.72167 | 5.08273 | 801 ft | 3 kts | 284° |
| 2026-04-28 17:44 | 45.72166 | 5.08302 | 802 ft | 3 kts | 239° |
| 2026-04-28 17:44 | 45.72179 | 5.08322 | 802 ft | 2 kts | 199° |
| 2026-04-28 17:45 | 45.72180 | 5.08323 | 803 ft | 0 kts | 199° |
| 2026-04-28 17:49 | 45.72171 | 5.08319 | 802 ft | 5 kts | 194° |
| 2026-04-28 17:49 | 45.72125 | 5.08300 | 802 ft | 8 kts | 199° |
| 2026-04-28 17:49 | 45.72061 | 5.08265 | 801 ft | 11 kts | 199° |
| 2026-04-28 17:50 | 45.71985 | 5.08270 | 802 ft | 11 kts | 153° |
| 2026-04-28 17:50 | 45.71954 | 5.08354 | 803 ft | 10 kts | 105° |
| 2026-04-28 17:50 | 45.71931 | 5.08439 | 805 ft | 8 kts | 128° |
| 2026-04-28 17:50 | 45.71881 | 5.08468 | 806 ft | 8 kts | 171° |
| 2026-04-28 17:51 | 45.71818 | 5.08468 | 806 ft | 10 kts | 187° |
| 2026-04-28 17:51 | 45.71746 | 5.08478 | 806 ft | 11 kts | 163° |
| 2026-04-28 17:51 | 45.71671 | 5.08499 | 807 ft | 11 kts | 172° |
| 2026-04-28 17:51 | 45.71609 | 5.08555 | 808 ft | 10 kts | 117° |
| 2026-04-28 17:52 | 45.71606 | 5.08647 | 810 ft | 9 kts | 85° |
| 2026-04-28 17:52 | 45.71610 | 5.08724 | 812 ft | 7 kts | 86° |
| 2026-04-28 17:52 | 45.71613 | 5.08808 | 813 ft | 10 kts | 89° |
| 2026-04-28 17:53 | 45.71630 | 5.08930 | 816 ft | 15 kts | 55° |
| 2026-04-28 17:53 | 45.71742 | 5.08956 | 814 ft | 20 kts | 353° |
| 2026-04-28 17:53 | 45.71976 | 5.08908 | 813 ft | 61 kts | 354° |
| 2026-04-28 17:53 | 45.72611 | 5.08843 | 796 ft | 120 kts | 355° |
| 2026-04-28 17:54 | 45.73607 | 5.08729 | 786 ft | 166 kts | 356° |
| 2026-04-28 17:54 | 45.74797 | 5.08523 | 1260 ft | 177 kts | 352° |
| 2026-04-28 17:54 | 45.76063 | 5.08268 | 1793 ft | 190 kts | 352° |
| 2026-04-28 17:54 | 45.77406 | 5.07997 | 2412 ft | 199 kts | 352° |
| 2026-04-28 17:55 | 45.78826 | 5.07710 | 2950 ft | 217 kts | 352° |
| 2026-04-28 17:55 | 45.80393 | 5.07393 | 3479 ft | 236 kts | 352° |
| 2026-04-28 17:55 | 45.82033 | 5.07061 | 4042 ft | 243 kts | 352° |
| 2026-04-28 17:55 | 45.83772 | 5.06709 | 4710 ft | 259 kts | 352° |
| 2026-04-28 17:56 | 45.85587 | 5.06341 | 5393 ft | 267 kts | 352° |
| 2026-04-28 17:56 | 45.87447 | 5.05964 | 6093 ft | 272 kts | 352° |
| 2026-04-28 17:56 | 45.89334 | 5.05580 | 6776 ft | 276 kts | 352° |
| 2026-04-28 17:56 | 45.91247 | 5.05191 | 7464 ft | 280 kts | 351° |
| 2026-04-28 17:57 | 45.93190 | 5.04795 | 8167 ft | 283 kts | 351° |
| 2026-04-28 17:57 | 45.95130 | 5.04399 | 8873 ft | 287 kts | 351° |
| 2026-04-28 17:57 | 45.97116 | 5.03992 | 9623 ft | 290 kts | 351° |
| 2026-04-28 17:57 | 45.99133 | 5.03578 | 10331 ft | 295 kts | 350° |
| 2026-04-28 17:58 | 46.01200 | 5.03152 | 11057 ft | 304 kts | 350° |
| 2026-04-28 17:58 | 46.03231 | 5.02432 | 11897 ft | 300 kts | 332° |
| 2026-04-28 17:58 | 46.05086 | 5.01016 | 12643 ft | 305 kts | 328° |
| 2026-04-28 17:58 | 46.06958 | 4.99494 | 13427 ft | 310 kts | 328° |
| 2026-04-28 17:59 | 46.08843 | 4.97945 | 14199 ft | 313 kts | 328° |
| 2026-04-28 17:59 | 46.10743 | 4.96383 | 14907 ft | 316 kts | 311° |
| 2026-04-28 17:59 | 46.12827 | 4.95338 | 15211 ft | 332 kts | 355° |
| 2026-04-28 17:59 | 46.15121 | 4.96045 | 15393 ft | 360 kts | 23° |
| 2026-04-28 18:00 | 46.17179 | 4.98315 | 14793 ft | 383 kts | 51° |
| 2026-04-28 18:00 | 46.18360 | 5.01741 | 14108 ft | 386 kts | 78° |
| 2026-04-28 18:00 | 46.18679 | 5.05592 | 13371 ft | 388 kts | 86° |
| 2026-04-28 18:00 | 46.18882 | 5.09492 | 12600 ft | 391 kts | 86° |
| 2026-04-28 18:01 | 46.19086 | 5.13419 | 11829 ft | 393 kts | 86° |
| 2026-04-28 18:01 | 46.19289 | 5.17354 | 11139 ft | 392 kts | 86° |
| 2026-04-28 18:01 | 46.19492 | 5.21267 | 10537 ft | 389 kts | 87° |
| 2026-04-28 18:01 | 46.19694 | 5.25144 | 9947 ft | 385 kts | 87° |
| 2026-04-28 18:02 | 46.19893 | 5.28969 | 9327 ft | 375 kts | 87° |
| 2026-04-28 18:02 | 46.20085 | 5.32607 | 8717 ft | 350 kts | 87° |
| 2026-04-28 18:02 | 46.20264 | 5.35989 | 8156 ft | 328 kts | 86° |
| 2026-04-28 18:02 | 46.20430 | 5.39134 | 7637 ft | 310 kts | 86° |
| 2026-04-28 18:03 | 46.20591 | 5.42165 | 7114 ft | 296 kts | 86° |
| 2026-04-28 18:03 | 46.20748 | 5.45105 | 6616 ft | 293 kts | 86° |
| 2026-04-28 18:03 | 46.20895 | 5.48047 | 6273 ft | 296 kts | 87° |
| 2026-04-28 18:03 | 46.20997 | 5.51255 | 6007 ft | 344 kts | 89° |
| 2026-04-28 18:04 | 46.21072 | 5.54813 | 6665 ft | 341 kts | 89° |
| 2026-04-28 18:04 | 46.21140 | 5.57920 | 7827 ft | 291 kts | 90° |
| 2026-04-28 18:04 | 46.21171 | 5.60895 | 7973 ft | 312 kts | 91° |
| 2026-04-28 18:04 | 46.21107 | 5.64238 | 7933 ft | 351 kts | 94° |
| 2026-04-28 18:05 | 46.20946 | 5.67870 | 8182 ft | 370 kts | 96° |
| 2026-04-28 18:05 | 46.20643 | 5.70282 | 9136 ft | 356 kts | 112° |
| 2026-04-28 18:05 | 46.18953 | 5.74021 | 10403 ft | 327 kts | 134° |
| 2026-04-28 18:05 | 46.17441 | 5.76428 | 10950 ft | 321 kts | 136° |
| 2026-04-28 18:06 | 46.15866 | 5.78707 | 10927 ft | 322 kts | 139° |
| 2026-04-28 18:06 | 46.14208 | 5.80867 | 10552 ft | 319 kts | 142° |
| 2026-04-28 18:06 | 46.12510 | 5.82889 | 10021 ft | 318 kts | 143° |
| 2026-04-28 18:06 | 46.10871 | 5.85021 | 9191 ft | 316 kts | 131° |
| 2026-04-28 18:07 | 46.09912 | 5.87740 | 8650 ft | 297 kts | 109° |
| 2026-04-28 18:07 | 46.09721 | 5.90665 | 7905 ft | 291 kts | 81° |
| 2026-04-28 18:07 | 46.10499 | 5.93224 | 7508 ft | 273 kts | 53° |
| 2026-04-28 18:07 | 46.11792 | 5.95219 | 6425 ft | 273 kts | 42° |
| 2026-04-28 18:08 | 46.13229 | 5.97010 | 5133 ft | 273 kts | 41° |
| 2026-04-28 18:08 | 46.14673 | 5.98608 | 4341 ft | 255 kts | 34° |
| 2026-04-28 18:08 | 46.16096 | 5.99911 | 3827 ft | 232 kts | 33° |
| 2026-04-28 18:08 | 46.17335 | 6.01233 | 3320 ft | 211 kts | 43° |
| 2026-04-28 18:09 | 46.18303 | 6.02671 | 2915 ft | 192 kts | 51° |
| 2026-04-28 18:09 | 46.18883 | 6.03592 | 2723 ft | 181 kts | 47° |
| 2026-04-28 18:09 | 46.19714 | 6.04833 | 2419 ft | 165 kts | 49° |
| 2026-04-28 18:09 | 46.20497 | 6.06001 | 2071 ft | 158 kts | 45° |
| 2026-04-28 18:10 | 46.21230 | 6.07073 | 1843 ft | 145 kts | 49° |
| 2026-04-28 18:10 | 46.21938 | 6.08151 | 1644 ft | 140 kts | 34° |
| 2026-04-28 18:10 | 46.22557 | 6.09165 | 1483 ft | 138 kts | 39° |
| 2026-04-28 18:10 | 46.23297 | 6.10100 | 1589 ft | 158 kts | 46° |
| 2026-04-28 18:11 | 46.24227 | 6.11292 | 1915 ft | 198 kts | 43° |
| 2026-04-28 18:11 | 46.25328 | 6.12796 | 2360 ft | 238 kts | 45° |